sensor_id;sensor_type;location;lat;lon;timestamp;pressure;altitude;pressure_sealevel;temperature;humidity
70011;BME280;59543;37.950;-122.338;2023-01-01T00:01:34;100312.16;;;10.05;97.28
70011;BME280;59543;37.950;-122.338;2023-01-01T00:04:05;100311.59;;;10.01;96.75
70011;BME280;59543;37.950;-122.338;2023-01-01T00:06:35;100322.75;;;10.06;96.18
70011;BME280;59543;37.950;-122.338;2023-01-01T00:09:01;100316.94;;;9.93;96.67
70011;BME280;59543;37.950;-122.338;2023-01-01T00:11:46;100310.25;;;9.97;96.75
70011;BME280;59543;37.950;-122.338;2023-01-01T00:14:12;100309.31;;;10.06;96.69
70011;BME280;59543;37.950;-122.338;2023-01-01T00:16:38;100307.94;;;10.02;97.97
70011;BME280;59543;37.950;-122.338;2023-01-01T00:19:05;100310.31;;;10.05;97.47
70011;BME280;59543;37.950;-122.338;2023-01-01T00:21:32;100307.44;;;10.07;96.35
70011;BME280;59543;37.950;-122.338;2023-01-01T00:23:58;100311.84;;;10.08;96.85
70011;BME280;59543;37.950;-122.338;2023-01-01T00:26:24;100311.84;;;10.08;98.37
70011;BME280;59543;37.950;-122.338;2023-01-01T00:28:50;100315.81;;;10.04;98.94
70011;BME280;59543;37.950;-122.338;2023-01-01T00:31:19;100311.91;;;9.98;99.79
70011;BME280;59543;37.950;-122.338;2023-01-01T00:33:49;100323.84;;;9.96;99.93
70011;BME280;59543;37.950;-122.338;2023-01-01T00:36:16;100327.38;;;9.96;99.24
70011;BME280;59543;37.950;-122.338;2023-01-01T00:38:44;100325.06;;;9.83;99.69
70011;BME280;59543;37.950;-122.338;2023-01-01T00:41:11;100337.34;;;9.86;100.00
70011;BME280;59543;37.950;-122.338;2023-01-01T00:43:38;100330.44;;;9.83;99.31
70011;BME280;59543;37.950;-122.338;2023-01-01T00:46:06;100332.34;;;9.73;99.54
70011;BME280;59543;37.950;-122.338;2023-01-01T00:48:33;100332.34;;;9.73;99.52
70011;BME280;59543;37.950;-122.338;2023-01-01T00:50:59;100333.72;;;9.77;98.84
70011;BME280;59543;37.950;-122.338;2023-01-01T00:53:26;100336.59;;;9.76;98.78
70011;BME280;59543;37.950;-122.338;2023-01-01T00:55:52;100342.66;;;9.78;98.57
70011;BME280;59543;37.950;-122.338;2023-01-01T00:58:22;100334.44;;;9.79;98.06
70011;BME280;59543;37.950;-122.338;2023-01-01T01:00:50;100339.50;;;9.82;98.30
70011;BME280;59543;37.950;-122.338;2023-01-01T01:03:17;100346.63;;;9.74;97.94
70011;BME280;59543;37.950;-122.338;2023-01-01T01:08:37;100340.56;;;9.90;96.03
70011;BME280;59543;37.950;-122.338;2023-01-01T01:11:08;100332.06;;;9.76;95.96
70011;BME280;59543;37.950;-122.338;2023-01-01T01:13:36;100338.50;;;9.83;96.23
70011;BME280;59543;37.950;-122.338;2023-01-01T01:16:14;100333.69;;;9.87;96.05
70011;BME280;59543;37.950;-122.338;2023-01-01T01:18:41;100327.81;;;9.92;94.37
70011;BME280;59543;37.950;-122.338;2023-01-01T01:21:07;100336.97;;;9.99;94.35
70011;BME280;59543;37.950;-122.338;2023-01-01T01:23:34;100338.97;;;9.97;94.24
70011;BME280;59543;37.950;-122.338;2023-01-01T01:26:10;100338.97;;;9.97;92.43
70011;BME280;59543;37.950;-122.338;2023-01-01T01:28:37;100338.03;;;10.06;91.66
70011;BME280;59543;37.950;-122.338;2023-01-01T01:31:04;100333.34;;;10.08;90.53
70011;BME280;59543;37.950;-122.338;2023-01-01T01:33:30;100329.78;;;10.07;91.73
70011;BME280;59543;37.950;-122.338;2023-01-01T01:35:56;100348.06;;;10.04;91.21
70011;BME280;59543;37.950;-122.338;2023-01-01T01:38:23;100350.66;;;10.14;91.13
70011;BME280;59543;37.950;-122.338;2023-01-01T01:40:49;100346.47;;;10.11;90.54
70011;BME280;59543;37.950;-122.338;2023-01-01T01:43:22;100343.16;;;10.17;91.27
70011;BME280;59543;37.950;-122.338;2023-01-01T01:45:54;100352.72;;;10.20;90.91
70011;BME280;59543;37.950;-122.338;2023-01-01T01:48:24;100351.75;;;10.21;90.03
70011;BME280;59543;37.950;-122.338;2023-01-01T01:50:51;100349.91;;;10.21;90.28
70011;BME280;59543;37.950;-122.338;2023-01-01T01:53:24;100359.13;;;10.19;90.39
70011;BME280;59543;37.950;-122.338;2023-01-01T01:55:58;100361.97;;;10.17;90.51
70011;BME280;59543;37.950;-122.338;2023-01-01T01:58:28;100358.97;;;10.20;88.54
70011;BME280;59543;37.950;-122.338;2023-01-01T02:00:56;100356.28;;;10.20;88.75
70011;BME280;59543;37.950;-122.338;2023-01-01T02:05:52;100375.78;;;10.22;88.89
70011;BME280;59543;37.950;-122.338;2023-01-01T02:08:19;100380.84;;;10.25;88.18
70011;BME280;59543;37.950;-122.338;2023-01-01T02:10:46;100392.91;;;10.21;88.74
70011;BME280;59543;37.950;-122.338;2023-01-01T02:13:12;100392.22;;;10.19;88.21
70011;BME280;59543;37.950;-122.338;2023-01-01T02:15:47;100389.91;;;10.24;88.29
70011;BME280;59543;37.950;-122.338;2023-01-01T02:18:20;100394.88;;;10.29;86.89
70011;BME280;59543;37.950;-122.338;2023-01-01T02:21:10;100395.28;;;10.24;88.17
70011;BME280;59543;37.950;-122.338;2023-01-01T02:23:54;100397.91;;;10.16;88.89
70011;BME280;59543;37.950;-122.338;2023-01-01T02:26:44;100402.63;;;10.32;88.45
70011;BME280;59543;37.950;-122.338;2023-01-01T02:32:12;100397.56;;;10.29;87.11
70011;BME280;59543;37.950;-122.338;2023-01-01T02:35:00;100389.31;;;10.30;85.74
70011;BME280;59543;37.950;-122.338;2023-01-01T02:37:53;100375.25;;;10.37;84.49
70011;BME280;59543;37.950;-122.338;2023-01-01T02:40:22;100384.09;;;10.47;81.89
70011;BME280;59543;37.950;-122.338;2023-01-01T02:42:50;100384.63;;;10.59;80.70
70011;BME280;59543;37.950;-122.338;2023-01-01T02:45:18;100401.75;;;10.75;79.72
70011;BME280;59543;37.950;-122.338;2023-01-01T02:47:44;100425.06;;;10.93;78.54
70011;BME280;59543;37.950;-122.338;2023-01-01T02:50:31;100430.31;;;11.03;76.87
70011;BME280;59543;37.950;-122.338;2023-01-01T02:53:18;100450.00;;;11.03;77.60
70011;BME280;59543;37.950;-122.338;2023-01-01T02:58:44;100428.06;;;10.90;80.87
70011;BME280;59543;37.950;-122.338;2023-01-01T03:01:48;100424.88;;;10.94;81.03
70011;BME280;59543;37.950;-122.338;2023-01-01T03:04:31;100445.50;;;10.86;81.67
70011;BME280;59543;37.950;-122.338;2023-01-01T03:07:06;100447.22;;;10.87;80.64
70011;BME280;59543;37.950;-122.338;2023-01-01T03:12:39;100458.34;;;10.92;81.26
70011;BME280;59543;37.950;-122.338;2023-01-01T03:15:18;100455.81;;;10.90;80.94
70011;BME280;59543;37.950;-122.338;2023-01-01T03:17:54;100456.88;;;10.97;81.15
70011;BME280;59543;37.950;-122.338;2023-01-01T03:20:26;100465.88;;;10.88;82.32
70011;BME280;59543;37.950;-122.338;2023-01-01T03:22:56;100467.03;;;10.86;80.89
70011;BME280;59543;37.950;-122.338;2023-01-01T03:25:37;100473.00;;;10.97;80.11
70011;BME280;59543;37.950;-122.338;2023-01-01T03:28:10;100479.50;;;10.87;80.23
70011;BME280;59543;37.950;-122.338;2023-01-01T03:30:41;100487.94;;;10.92;80.75
70011;BME280;59543;37.950;-122.338;2023-01-01T03:33:16;100485.31;;;11.00;80.32
70011;BME280;59543;37.950;-122.338;2023-01-01T03:35:56;100494.97;;;11.11;79.75
70011;BME280;59543;37.950;-122.338;2023-01-01T03:41:43;100506.84;;;11.00;80.20
70011;BME280;59543;37.950;-122.338;2023-01-01T03:46:49;100510.47;;;10.91;81.18
70011;BME280;59543;37.950;-122.338;2023-01-01T03:49:16;100523.06;;;11.08;79.88
70011;BME280;59543;37.950;-122.338;2023-01-01T03:54:56;100524.91;;;11.08;79.71
70011;BME280;59543;37.950;-122.338;2023-01-01T04:00:13;100534.91;;;10.97;80.75
70011;BME280;59543;37.950;-122.338;2023-01-01T04:02:49;100533.16;;;10.88;82.17
70011;BME280;59543;37.950;-122.338;2023-01-01T04:05:19;100534.47;;;10.84;83.16
70011;BME280;59543;37.950;-122.338;2023-01-01T04:07:47;100539.56;;;10.69;84.38
70011;BME280;59543;37.950;-122.338;2023-01-01T04:10:14;100537.09;;;10.76;84.50
70011;BME280;59543;37.950;-122.338;2023-01-01T04:12:53;100542.66;;;10.74;84.49
70011;BME280;59543;37.950;-122.338;2023-01-01T04:15:23;100544.34;;;10.58;85.95
70011;BME280;59543;37.950;-122.338;2023-01-01T04:17:50;100543.94;;;10.70;85.48
70011;BME280;59543;37.950;-122.338;2023-01-01T04:20:17;100552.94;;;10.61;85.82
70011;BME280;59543;37.950;-122.338;2023-01-01T04:22:44;100546.88;;;10.59;85.92
70011;BME280;59543;37.950;-122.338;2023-01-01T04:25:11;100555.41;;;10.55;85.99
70011;BME280;59543;37.950;-122.338;2023-01-01T04:27:38;100544.13;;;10.51;86.18
70011;BME280;59543;37.950;-122.338;2023-01-01T04:30:07;100558.47;;;10.60;86.06
70011;BME280;59543;37.950;-122.338;2023-01-01T04:32:34;100556.31;;;10.63;85.90
70011;BME280;59543;37.950;-122.338;2023-01-01T04:35:00;100552.94;;;10.61;85.51
70011;BME280;59543;37.950;-122.338;2023-01-01T04:37:26;100553.72;;;10.53;85.65
70011;BME280;59543;37.950;-122.338;2023-01-01T04:39:52;100562.84;;;10.43;86.48
70011;BME280;59543;37.950;-122.338;2023-01-01T04:42:19;100561.94;;;10.52;86.03
70011;BME280;59543;37.950;-122.338;2023-01-01T04:44:45;100564.06;;;10.30;86.91
70011;BME280;59543;37.950;-122.338;2023-01-01T04:47:11;100564.28;;;10.37;87.08
70011;BME280;59543;37.950;-122.338;2023-01-01T04:49:37;100570.50;;;10.38;86.58
70011;BME280;59543;37.950;-122.338;2023-01-01T04:52:04;100568.69;;;10.38;86.58
70011;BME280;59543;37.950;-122.338;2023-01-01T04:54:30;100571.38;;;10.38;86.29
70011;BME280;59543;37.950;-122.338;2023-01-01T04:56:57;100585.66;;;10.39;86.05
70011;BME280;59543;37.950;-122.338;2023-01-01T04:59:23;100592.53;;;10.51;85.32
70011;BME280;59543;37.950;-122.338;2023-01-01T05:01:49;100587.44;;;10.48;84.96
70011;BME280;59543;37.950;-122.338;2023-01-01T05:04:16;100587.34;;;10.40;85.27
70011;BME280;59543;37.950;-122.338;2023-01-01T05:06:42;100585.91;;;10.45;85.00
70011;BME280;59543;37.950;-122.338;2023-01-01T05:09:10;100580.00;;;10.42;85.61
70011;BME280;59543;37.950;-122.338;2023-01-01T05:11:37;100578.03;;;10.34;85.43
70011;BME280;59543;37.950;-122.338;2023-01-01T05:14:03;100584.88;;;10.28;86.09
70011;BME280;59543;37.950;-122.338;2023-01-01T05:16:33;100586.22;;;10.42;85.65
70011;BME280;59543;37.950;-122.338;2023-01-01T05:19:00;100579.44;;;10.38;85.30
70011;BME280;59543;37.950;-122.338;2023-01-01T05:21:32;100585.53;;;10.58;83.62
70011;BME280;59543;37.950;-122.338;2023-01-01T05:24:06;100579.50;;;10.28;85.02
70011;BME280;59543;37.950;-122.338;2023-01-01T05:26:39;100576.69;;;10.48;84.36
70011;BME280;59543;37.950;-122.338;2023-01-01T05:29:06;100577.41;;;10.50;84.12
70011;BME280;59543;37.950;-122.338;2023-01-01T05:31:34;100584.19;;;10.26;84.72
70011;BME280;59543;37.950;-122.338;2023-01-01T05:34:02;100585.19;;;10.16;85.24
70011;BME280;59543;37.950;-122.338;2023-01-01T05:36:31;100598.41;;;10.09;86.29
70011;BME280;59543;37.950;-122.338;2023-01-01T05:38:58;100602.88;;;10.18;86.75
70011;BME280;59543;37.950;-122.338;2023-01-01T05:41:24;100608.09;;;10.29;86.07
70011;BME280;59543;37.950;-122.338;2023-01-01T05:43:51;100606.38;;;10.28;85.80
70011;BME280;59543;37.950;-122.338;2023-01-01T05:46:20;100617.00;;;10.30;86.31
70011;BME280;59543;37.950;-122.338;2023-01-01T05:48:48;100612.31;;;10.32;86.80
70011;BME280;59543;37.950;-122.338;2023-01-01T05:51:17;100619.16;;;10.26;87.10
70011;BME280;59543;37.950;-122.338;2023-01-01T05:53:43;100611.16;;;10.35;87.59
70011;BME280;59543;37.950;-122.338;2023-01-01T05:56:10;100618.84;;;10.29;87.35
70011;BME280;59543;37.950;-122.338;2023-01-01T05:58:37;100621.66;;;10.28;87.92
70011;BME280;59543;37.950;-122.338;2023-01-01T06:01:13;100621.53;;;10.29;88.46
70011;BME280;59543;37.950;-122.338;2023-01-01T06:03:40;100620.38;;;10.22;88.70
70011;BME280;59543;37.950;-122.338;2023-01-01T06:06:12;100618.28;;;10.26;88.95
70011;BME280;59543;37.950;-122.338;2023-01-01T06:08:39;100624.78;;;10.23;89.03
70011;BME280;59543;37.950;-122.338;2023-01-01T06:11:08;100627.19;;;10.17;89.53
70011;BME280;59543;37.950;-122.338;2023-01-01T06:13:35;100636.13;;;10.17;89.56
70011;BME280;59543;37.950;-122.338;2023-01-01T06:16:02;100630.16;;;10.23;89.44
70011;BME280;59543;37.950;-122.338;2023-01-01T06:18:30;100638.00;;;10.44;88.91
70011;BME280;59543;37.950;-122.338;2023-01-01T06:21:14;100640.81;;;10.43;88.93
70011;BME280;59543;37.950;-122.338;2023-01-01T06:23:41;100651.88;;;10.40;89.18
70011;BME280;59543;37.950;-122.338;2023-01-01T06:26:13;100655.88;;;10.36;89.70
70011;BME280;59543;37.950;-122.338;2023-01-01T06:28:41;100659.31;;;10.28;90.25
70011;BME280;59543;37.950;-122.338;2023-01-01T06:31:09;100654.09;;;10.26;89.71
70011;BME280;59543;37.950;-122.338;2023-01-01T06:33:36;100659.06;;;10.49;89.35
70011;BME280;59543;37.950;-122.338;2023-01-01T06:36:04;100668.25;;;10.74;85.77
70011;BME280;59543;37.950;-122.338;2023-01-01T06:38:32;100660.09;;;10.66;86.11
70011;BME280;59543;37.950;-122.338;2023-01-01T06:41:01;100676.28;;;10.56;86.47
70011;BME280;59543;37.950;-122.338;2023-01-01T06:43:29;100668.84;;;10.50;87.07
70011;BME280;59543;37.950;-122.338;2023-01-01T06:46:03;100673.69;;;10.64;87.10
70011;BME280;59543;37.950;-122.338;2023-01-01T06:48:31;100676.69;;;10.79;85.28
70011;BME280;59543;37.950;-122.338;2023-01-01T06:51:04;100678.69;;;10.59;86.39
70011;BME280;59543;37.950;-122.338;2023-01-01T06:53:31;100677.28;;;10.55;86.57
70011;BME280;59543;37.950;-122.338;2023-01-01T06:55:58;100673.81;;;10.45;87.13
70011;BME280;59543;37.950;-122.338;2023-01-01T06:58:24;100682.00;;;10.43;87.35
70011;BME280;59543;37.950;-122.338;2023-01-01T07:00:50;100683.44;;;10.38;87.43
70011;BME280;59543;37.950;-122.338;2023-01-01T07:03:16;100692.41;;;10.28;87.36
70011;BME280;59543;37.950;-122.338;2023-01-01T07:05:43;100689.31;;;10.23;87.69
70011;BME280;59543;37.950;-122.338;2023-01-01T07:08:09;100695.34;;;10.25;87.25
70011;BME280;59543;37.950;-122.338;2023-01-01T07:10:35;100697.22;;;10.25;86.97
70011;BME280;59543;37.950;-122.338;2023-01-01T07:13:01;100698.94;;;10.16;87.18
70011;BME280;59543;37.950;-122.338;2023-01-01T07:15:28;100703.34;;;10.07;87.06
70011;BME280;59543;37.950;-122.338;2023-01-01T07:17:56;100700.16;;;9.94;87.94
70011;BME280;59543;37.950;-122.338;2023-01-01T07:20:22;100692.72;;;9.78;88.61
70011;BME280;59543;37.950;-122.338;2023-01-01T07:22:48;100702.59;;;9.68;88.61
70011;BME280;59543;37.950;-122.338;2023-01-01T07:25:14;100705.88;;;9.62;88.45
70011;BME280;59543;37.950;-122.338;2023-01-01T07:27:41;100706.16;;;9.59;88.69
70011;BME280;59543;37.950;-122.338;2023-01-01T07:30:08;100714.94;;;9.51;90.06
70011;BME280;59543;37.950;-122.338;2023-01-01T07:32:35;100727.94;;;9.46;88.94
70011;BME280;59543;37.950;-122.338;2023-01-01T07:35:01;100732.16;;;9.58;89.23
70011;BME280;59543;37.950;-122.338;2023-01-01T07:37:27;100727.78;;;9.38;89.38
70011;BME280;59543;37.950;-122.338;2023-01-01T07:39:53;100714.09;;;9.51;89.14
70011;BME280;59543;37.950;-122.338;2023-01-01T07:42:20;100727.94;;;9.36;89.55
70011;BME280;59543;37.950;-122.338;2023-01-01T07:44:46;100727.13;;;9.36;90.45
70011;BME280;59543;37.950;-122.338;2023-01-01T07:47:23;100722.59;;;9.36;90.93
70011;BME280;59543;37.950;-122.338;2023-01-01T07:49:51;100726.94;;;9.37;91.31
70011;BME280;59543;37.950;-122.338;2023-01-01T07:52:17;100728.63;;;9.38;91.03
70011;BME280;59543;37.950;-122.338;2023-01-01T07:54:44;100730.19;;;9.31;91.36
70011;BME280;59543;37.950;-122.338;2023-01-01T07:57:10;100726.94;;;9.37;91.34
70011;BME280;59543;37.950;-122.338;2023-01-01T07:59:36;100724.13;;;9.29;92.28
70011;BME280;59543;37.950;-122.338;2023-01-01T08:02:02;100720.72;;;9.47;92.29
70011;BME280;59543;37.950;-122.338;2023-01-01T08:04:29;100714.22;;;9.59;91.93
70011;BME280;59543;37.950;-122.338;2023-01-01T08:06:55;100717.06;;;9.57;91.37
70011;BME280;59543;37.950;-122.338;2023-01-01T08:09:21;100710.09;;;9.74;90.55
70011;BME280;59543;37.950;-122.338;2023-01-01T08:11:48;100716.44;;;9.83;89.93
70011;BME280;59543;37.950;-122.338;2023-01-01T08:14:16;100718.28;;;9.82;89.43
70011;BME280;59543;37.950;-122.338;2023-01-01T08:16:42;100709.69;;;9.59;90.98
70011;BME280;59543;37.950;-122.338;2023-01-01T08:19:08;100709.84;;;9.58;91.38
70011;BME280;59543;37.950;-122.338;2023-01-01T08:21:34;100710.81;;;9.67;90.95
70011;BME280;59543;37.950;-122.338;2023-01-01T08:24:01;100702.91;;;9.75;90.38
70011;BME280;59543;37.950;-122.338;2023-01-01T08:26:30;100707.53;;;9.82;89.81
70011;BME280;59543;37.950;-122.338;2023-01-01T08:28:57;100693.38;;;9.80;89.61
70011;BME280;59543;37.950;-122.338;2023-01-01T08:31:23;100698.75;;;9.80;89.18
70011;BME280;59543;37.950;-122.338;2023-01-01T08:33:50;100703.03;;;9.73;88.73
70011;BME280;59543;37.950;-122.338;2023-01-01T08:36:16;100703.28;;;9.80;88.12
70011;BME280;59543;37.950;-122.338;2023-01-01T08:38:42;100698.66;;;9.72;88.25
70011;BME280;59543;37.950;-122.338;2023-01-01T08:41:09;100698.53;;;9.64;88.36
70011;BME280;59543;37.950;-122.338;2023-01-01T08:43:35;100706.72;;;9.62;88.17
70011;BME280;59543;37.950;-122.338;2023-01-01T08:46:01;100712.66;;;9.66;88.05
70011;BME280;59543;37.950;-122.338;2023-01-01T08:48:27;100715.22;;;9.58;87.77
70011;BME280;59543;37.950;-122.338;2023-01-01T08:50:58;100709.28;;;9.54;87.72
70011;BME280;59543;37.950;-122.338;2023-01-01T08:53:29;100708.44;;;9.54;87.42
70011;BME280;59543;37.950;-122.338;2023-01-01T08:56:01;100711.28;;;9.43;88.00
70011;BME280;59543;37.950;-122.338;2023-01-01T08:58:31;100712.53;;;9.48;87.16
70011;BME280;59543;37.950;-122.338;2023-01-01T09:00:58;100712.25;;;9.42;87.77
70011;BME280;59543;37.950;-122.338;2023-01-01T09:03:25;100713.13;;;9.42;87.09
70011;BME280;59543;37.950;-122.338;2023-01-01T09:05:51;100702.22;;;9.44;86.66
70011;BME280;59543;37.950;-122.338;2023-01-01T09:08:19;100708.44;;;9.54;86.50
70011;BME280;59543;37.950;-122.338;2023-01-01T09:10:45;100700.38;;;9.54;86.23
70011;BME280;59543;37.950;-122.338;2023-01-01T09:13:17;100705.88;;;9.52;86.09
70011;BME280;59543;37.950;-122.338;2023-01-01T09:15:44;100704.66;;;9.27;87.05
70011;BME280;59543;37.950;-122.338;2023-01-01T09:18:10;100699.53;;;9.44;86.64
70011;BME280;59543;37.950;-122.338;2023-01-01T09:20:37;100704.50;;;9.48;86.42
70011;BME280;59543;37.950;-122.338;2023-01-01T09:23:04;100699.09;;;9.38;87.26
70011;BME280;59543;37.950;-122.338;2023-01-01T09:25:32;100694.03;;;9.45;86.23
70011;BME280;59543;37.950;-122.338;2023-01-01T09:28:00;100696.84;;;9.44;85.38
70011;BME280;59543;37.950;-122.338;2023-01-01T09:30:27;100697.41;;;9.37;85.32
70011;BME280;59543;37.950;-122.338;2023-01-01T09:32:53;100694.19;;;9.34;84.57
70011;BME280;59543;37.950;-122.338;2023-01-01T09:35:20;100689.78;;;9.23;84.83
70011;BME280;59543;37.950;-122.338;2023-01-01T09:37:46;100684.56;;;9.31;84.92
70011;BME280;59543;37.950;-122.338;2023-01-01T09:40:40;100696.28;;;9.40;84.07
70011;BME280;59543;37.950;-122.338;2023-01-01T09:46:01;100695.59;;;9.28;84.66
70011;BME280;59543;37.950;-122.338;2023-01-01T09:48:30;100698.81;;;9.42;83.50
70011;BME280;59543;37.950;-122.338;2023-01-01T09:50:59;100698.13;;;9.20;84.34
70011;BME280;59543;37.950;-122.338;2023-01-01T09:53:42;100699.00;;;9.30;84.04
70011;BME280;59543;37.950;-122.338;2023-01-01T09:56:16;100712.97;;;9.24;84.22
70011;BME280;59543;37.950;-122.338;2023-01-01T09:58:44;100708.31;;;9.16;84.66
70011;BME280;59543;37.950;-122.338;2023-01-01T10:07:10;100725.25;;;8.98;86.50
70011;BME280;59543;37.950;-122.338;2023-01-01T10:15:25;100739.38;;;9.00;86.52
70011;BME280;59543;37.950;-122.338;2023-01-01T10:18:01;100734.38;;;8.76;87.57
70011;BME280;59543;37.950;-122.338;2023-01-01T10:20:39;100726.19;;;8.77;87.28
70011;BME280;59543;37.950;-122.338;2023-01-01T10:25:44;100737.06;;;8.76;85.99
70011;BME280;59543;37.950;-122.338;2023-01-01T10:28:28;100723.97;;;8.92;84.27
70011;BME280;59543;37.950;-122.338;2023-01-01T10:31:09;100714.50;;;8.88;84.07
70011;BME280;59543;37.950;-122.338;2023-01-01T10:33:39;100725.34;;;8.86;84.03
70011;BME280;59543;37.950;-122.338;2023-01-01T10:36:06;100738.03;;;8.84;83.92
70011;BME280;59543;37.950;-122.338;2023-01-01T10:38:35;100738.31;;;8.81;83.11
70011;BME280;59543;37.950;-122.338;2023-01-01T10:41:06;100738.84;;;8.65;83.64
70011;BME280;59543;37.950;-122.338;2023-01-01T10:43:33;100740.56;;;8.66;83.69
70011;BME280;59543;37.950;-122.338;2023-01-01T10:46:00;100728.47;;;8.41;84.42
70011;BME280;59543;37.950;-122.338;2023-01-01T10:48:29;100741.66;;;8.33;85.43
70011;BME280;59543;37.950;-122.338;2023-01-01T10:51:03;100731.31;;;8.19;86.16
70011;BME280;59543;37.950;-122.338;2023-01-01T10:53:31;100743.72;;;8.20;86.30
70011;BME280;59543;37.950;-122.338;2023-01-01T10:56:13;100736.22;;;8.14;86.11
70011;BME280;59543;37.950;-122.338;2023-01-01T11:01:20;100749.91;;;7.90;86.40
70011;BME280;59543;37.950;-122.338;2023-01-01T11:06:35;100747.13;;;7.91;86.16
70011;BME280;59543;37.950;-122.338;2023-01-01T11:09:18;100749.59;;;7.83;86.11
70011;BME280;59543;37.950;-122.338;2023-01-01T11:11:47;100767.13;;;7.76;86.34
70011;BME280;59543;37.950;-122.338;2023-01-01T11:14:28;100772.31;;;7.68;86.15
70011;BME280;59543;37.950;-122.338;2023-01-01T11:16:57;100776.22;;;7.64;85.95
70011;BME280;59543;37.950;-122.338;2023-01-01T11:19:29;100773.47;;;7.54;86.51
70011;BME280;59543;37.950;-122.338;2023-01-01T11:21:57;100782.09;;;7.57;86.39
70011;BME280;59543;37.950;-122.338;2023-01-01T11:24:26;100776.72;;;7.57;86.93
70011;BME280;59543;37.950;-122.338;2023-01-01T11:27:10;100790.59;;;7.63;87.10
70011;BME280;59543;37.950;-122.338;2023-01-01T11:29:36;100791.50;;;7.73;86.75
70011;BME280;59543;37.950;-122.338;2023-01-01T11:32:06;100789.75;;;7.62;86.96
70011;BME280;59543;37.950;-122.338;2023-01-01T11:34:39;100789.41;;;7.55;87.22
70011;BME280;59543;37.950;-122.338;2023-01-01T11:37:11;100789.47;;;7.44;87.67
70011;BME280;59543;37.950;-122.338;2023-01-01T11:39:45;100778.34;;;7.49;87.56
70011;BME280;59543;37.950;-122.338;2023-01-01T11:42:20;100786.63;;;7.46;87.00
70011;BME280;59543;37.950;-122.338;2023-01-01T11:44:53;100802.63;;;7.36;87.61
70011;BME280;59543;37.950;-122.338;2023-01-01T11:53:30;100818.16;;;7.42;88.07
70011;BME280;59543;37.950;-122.338;2023-01-01T11:58:56;100818.13;;;7.53;87.26
70011;BME280;59543;37.950;-122.338;2023-01-01T12:01:43;100827.84;;;7.54;86.79
70011;BME280;59543;37.950;-122.338;2023-01-01T12:07:11;100821.38;;;7.89;84.28
70011;BME280;59543;37.950;-122.338;2023-01-01T12:09:54;100812.50;;;8.10;83.03
70011;BME280;59543;37.950;-122.338;2023-01-01T12:12:37;100818.75;;;8.20;82.14
70011;BME280;59543;37.950;-122.338;2023-01-01T12:15:18;100824.91;;;8.11;82.85
70011;BME280;59543;37.950;-122.338;2023-01-01T12:17:54;100820.06;;;8.05;83.09
70011;BME280;59543;37.950;-122.338;2023-01-01T12:20:27;100818.25;;;8.05;82.49
70011;BME280;59543;37.950;-122.338;2023-01-01T12:22:57;100825.16;;;8.08;83.39
70011;BME280;59543;37.950;-122.338;2023-01-01T12:25:35;100819.75;;;7.98;83.35
70011;BME280;59543;37.950;-122.338;2023-01-01T12:28:23;100824.84;;;7.80;84.00
70011;BME280;59543;37.950;-122.338;2023-01-01T12:42:59;100833.19;;;7.22;85.27
70011;BME280;59543;37.950;-122.338;2023-01-01T12:51:39;100845.97;;;7.62;84.16
70011;BME280;59543;37.950;-122.338;2023-01-01T12:57:30;100868.28;;;8.05;81.73
70011;BME280;59543;37.950;-122.338;2023-01-01T13:00:01;100873.66;;;8.05;81.04
70011;BME280;59543;37.950;-122.338;2023-01-01T13:02:32;100867.66;;;7.91;81.85
70011;BME280;59543;37.950;-122.338;2023-01-01T13:05:03;100882.97;;;7.89;81.92
70011;BME280;59543;37.950;-122.338;2023-01-01T13:07:38;100882.47;;;7.95;82.04
70011;BME280;59543;37.950;-122.338;2023-01-01T13:10:17;100887.09;;;7.93;81.79
70011;BME280;59543;37.950;-122.338;2023-01-01T13:12:48;100898.38;;;7.97;80.84
70011;BME280;59543;37.950;-122.338;2023-01-01T13:20:44;100899.94;;;8.11;80.34
70011;BME280;59543;37.950;-122.338;2023-01-01T13:31:16;100910.84;;;8.19;79.68
70011;BME280;59543;37.950;-122.338;2023-01-01T13:33:42;100916.31;;;8.17;79.95
70011;BME280;59543;37.950;-122.338;2023-01-01T13:38:50;100915.19;;;8.31;79.70
70011;BME280;59543;37.950;-122.338;2023-01-01T13:52:27;100937.97;;;8.25;78.49
70011;BME280;59543;37.950;-122.338;2023-01-01T13:55:43;100941.75;;;8.23;78.55
70011;BME280;59543;37.950;-122.338;2023-01-01T13:58:43;100956.53;;;8.17;79.15
70011;BME280;59543;37.950;-122.338;2023-01-01T14:03:51;100943.31;;;8.05;79.62
70011;BME280;59543;37.950;-122.338;2023-01-01T14:06:37;100945.44;;;8.22;79.32
70011;BME280;59543;37.950;-122.338;2023-01-01T14:09:13;100950.91;;;8.20;79.35
70011;BME280;59543;37.950;-122.338;2023-01-01T14:11:40;100946.28;;;8.22;78.35
70011;BME280;59543;37.950;-122.338;2023-01-01T14:14:24;100953.81;;;8.29;78.00
70011;BME280;59543;37.950;-122.338;2023-01-01T14:16:55;100956.78;;;8.14;78.49
70011;BME280;59543;37.950;-122.338;2023-01-01T14:19:23;100956.94;;;8.13;78.32
70011;BME280;59543;37.950;-122.338;2023-01-01T14:21:50;100951.94;;;8.08;78.49
70011;BME280;59543;37.950;-122.338;2023-01-01T14:24:19;100951.47;;;8.03;78.33
70011;BME280;59543;37.950;-122.338;2023-01-01T14:26:47;100957.50;;;7.84;79.22
70011;BME280;59543;37.950;-122.338;2023-01-01T14:29:22;100959.56;;;7.92;78.47
70011;BME280;59543;37.950;-122.338;2023-01-01T14:31:50;100959.31;;;7.95;78.19
70011;BME280;59543;37.950;-122.338;2023-01-01T14:34:26;100955.28;;;8.00;78.26